Texarkana Regional Webb Field
KTXK : now visible

Airfield :











YOU CAN JOIN US ON...

 
LOGIN :

Register | Disclaimer

   EN    FR    IT 

 









Legend :    VFR   Marginal VFR   IFR   Intensive IFR   Very Intensive IFR
Visi :
Ceiling :
>= 8 km
>= 3000ft
5 to 8 km
1000 to 3000 ft
1500m to 5 km
500 to 1000 ft
800 to 1500m
200 to 500 ft
< 800m
< 200 ft
Symbols :   Thunderstorms  Fog  Heavy snow  Heavy precipitations  Wind > 20 kt






- Airport Elevation : 390 ft
- IATA code : TXK


KTXK - Texarkana Regional Webb Field

CURRENT METAR :
  • 271353Z 22005KT 10SM CLR 23/16 A3006 RMK AO2 SLP175 T02280161

EXPIRED METARs :
  • 271253Z 00000KT 10SM CLR 19/15 A3006 RMK AO2 SLP173 T01940150
  • 271153Z 22003KT 10SM CLR 18/14 A3005 RMK AO2 SLP172 T01830144 10233 20183 53004

TAF KTXK
Valid from the 27 at 12:00 until the 28 at 12:00 UTC


271121Z 2712/2812 20007KT P6SM BKN250
FM271600 20010KT P6SM SCT045 BKN250
FM280000 17007KT P6SM FEW050 BKN250
FM281000 17006KT P6SM BKN015 BKN250
KZFW FIR / North America



MET'MAP, your aeronautical weather chart ! - Copyright ORBIFLY December 2007 - Disclaimer

ORBIFLY MET'MAP TEAM :

Programming & Development : Alexandra Zaïnal
Concept & original design : Baudouin d'Aumeries
Assistance for programming : Marc-Olivier Méhu
Technical & hardware support : Manuel Goepfert

Contact : metmap@orbifly.com




SOURCES & CREDITS :

   NOAA       Earth
Advisory